Manchester by the Sea, Massachusetts
Current Conditions -  °F | °C
As of 10:53 PM on Saturday 22 Nov 2014 (Local Time) from KBVY Reporting Station
Clear Clear  
Wind Chill: 34°   Ceiling: Unl
Heat Index: 41°   Visibility: 10mi
Dew Point: 18°   Wind: 13mph
Humidity: 40%   Direction: 240°WSW
Pressure: 30.04"   Gusts: 21mph
Location:  42.5824°N, 70.7694°W
Report Text: KBVY 230353Z AUTO 24011G18KT 10SM CLR 05/M08 A3004 RMK AO2 SLP171 T00501078
Loading
Personal Weather Stations






























Interactive Weather Map New forecast layout! Learn more

10-Day Weather Forecast

Advertisements
Track Severe Weather on mobile